sensor_id;sensor_type;location;lat;lon;timestamp;pressure;altitude;pressure_sealevel;temperature;humidity
74921;BME280;63483;47.384;8.860;2023-11-21T00:00:21;94177.78;;;6.40;43.98
74921;BME280;63483;47.384;8.860;2023-11-21T00:02:47;94177.63;;;6.42;44.08
74921;BME280;63483;47.384;8.860;2023-11-21T00:05:13;94175.69;;;6.35;43.82
74921;BME280;63483;47.384;8.860;2023-11-21T00:07:42;94179.38;;;6.41;43.78
74921;BME280;63483;47.384;8.860;2023-11-21T00:10:09;94168.69;;;6.44;44.37
74921;BME280;63483;47.384;8.860;2023-11-21T00:12:36;94162.47;;;6.45;43.82
74921;BME280;63483;47.384;8.860;2023-11-21T00:15:01;94156.97;;;6.40;43.97
74921;BME280;63483;47.384;8.860;2023-11-21T00:17:27;94161.84;;;6.43;43.96
74921;BME280;63483;47.384;8.860;2023-11-21T00:19:52;94161.84;;;6.43;43.79
74921;BME280;63483;47.384;8.860;2023-11-21T00:22:18;94152.06;;;6.45;44.06
74921;BME280;63483;47.384;8.860;2023-11-21T00:24:44;94160.22;;;6.42;43.88
74921;BME280;63483;47.384;8.860;2023-11-21T00:27:09;94159.53;;;6.48;44.12
74921;BME280;63483;47.384;8.860;2023-11-21T00:29:35;94168.19;;;6.49;43.67
74921;BME280;63483;47.384;8.860;2023-11-21T00:32:00;94170.63;;;6.50;44.15
74921;BME280;63483;47.384;8.860;2023-11-21T00:34:25;94155.97;;;6.49;43.93
74921;BME280;63483;47.384;8.860;2023-11-21T00:36:51;94154.22;;;6.42;43.96
74921;BME280;63483;47.384;8.860;2023-11-21T00:39:16;94151.44;;;6.43;43.85
74921;BME280;63483;47.384;8.860;2023-11-21T00:41:41;94144.13;;;6.39;43.84
74921;BME280;63483;47.384;8.860;2023-11-21T00:44:07;94138.44;;;6.43;43.66
74921;BME280;63483;47.384;8.860;2023-11-21T00:46:32;94151.44;;;6.43;43.89
74921;BME280;63483;47.384;8.860;2023-11-21T00:48:58;94145.75;;;6.40;43.57
74921;BME280;63483;47.384;8.860;2023-11-21T00:51:23;94141.03;;;6.43;43.60
74921;BME280;63483;47.384;8.860;2023-11-21T00:53:49;94148.81;;;6.51;44.18
74921;BME280;63483;47.384;8.860;2023-11-21T00:56:15;94153.38;;;6.49;43.15
74921;BME280;63483;47.384;8.860;2023-11-21T00:58:40;94153.38;;;6.49;43.52
74921;BME280;63483;47.384;8.860;2023-11-21T01:01:11;94146.53;;;6.48;43.83
74921;BME280;63483;47.384;8.860;2023-11-21T01:03:36;94148.50;;;6.46;44.00
74921;BME280;63483;47.384;8.860;2023-11-21T01:06:02;94141.66;;;6.53;43.67
74921;BME280;63483;47.384;8.860;2023-11-21T01:08:27;94148.50;;;6.55;43.25
74921;BME280;63483;47.384;8.860;2023-11-21T01:10:53;94156.94;;;6.57;43.75
74921;BME280;63483;47.384;8.860;2023-11-21T01:13:20;94151.56;;;6.58;43.49
74921;BME280;63483;47.384;8.860;2023-11-21T01:15:45;94152.38;;;6.59;43.77
74921;BME280;63483;47.384;8.860;2023-11-21T01:18:11;94146.88;;;6.45;43.50
74921;BME280;63483;47.384;8.860;2023-11-21T01:20:36;94142.78;;;6.59;43.47
74921;BME280;63483;47.384;8.860;2023-11-21T01:23:01;94142.97;;;6.58;43.70
74921;BME280;63483;47.384;8.860;2023-11-21T01:25:27;94139.69;;;6.56;44.03
74921;BME280;63483;47.384;8.860;2023-11-21T01:27:52;94133.19;;;6.60;44.36
74921;BME280;63483;47.384;8.860;2023-11-21T01:30:17;94146.81;;;6.62;44.34
74921;BME280;63483;47.384;8.860;2023-11-21T01:32:43;94145.84;;;6.63;44.47
74921;BME280;63483;47.384;8.860;2023-11-21T01:35:09;94153.50;;;6.64;44.19
74921;BME280;63483;47.384;8.860;2023-11-21T01:37:36;94154.28;;;6.65;44.28
74921;BME280;63483;47.384;8.860;2023-11-21T01:40:01;94140.97;;;6.68;43.82
74921;BME280;63483;47.384;8.860;2023-11-21T01:42:27;94123.06;;;6.65;44.41
74921;BME280;63483;47.384;8.860;2023-11-21T01:44:54;94128.13;;;6.66;43.93
74921;BME280;63483;47.384;8.860;2023-11-21T01:47:20;94135.09;;;6.66;44.05
74921;BME280;63483;47.384;8.860;2023-11-21T01:49:46;94133.00;;;6.61;44.15
74921;BME280;63483;47.384;8.860;2023-11-21T01:52:12;94128.31;;;6.57;44.49
74921;BME280;63483;47.384;8.860;2023-11-21T01:54:38;94142.63;;;6.61;44.90
74921;BME280;63483;47.384;8.860;2023-11-21T01:57:04;94132.53;;;6.58;44.80
74921;BME280;63483;47.384;8.860;2023-11-21T01:59:38;94129.44;;;6.62;45.04
74921;BME280;63483;47.384;8.860;2023-11-21T02:02:04;94133.00;;;6.61;44.87
74921;BME280;63483;47.384;8.860;2023-11-21T02:04:34;94121.81;;;6.61;44.52
74921;BME280;63483;47.384;8.860;2023-11-21T02:07:00;94123.41;;;6.62;45.08
74921;BME280;63483;47.384;8.860;2023-11-21T02:09:29;94132.22;;;6.61;45.34
74921;BME280;63483;47.384;8.860;2023-11-21T02:11:58;94119.53;;;6.58;44.67
74921;BME280;63483;47.384;8.860;2023-11-21T02:14:26;94120.50;;;6.57;44.27
74921;BME280;63483;47.384;8.860;2023-11-21T02:16:53;94115.31;;;6.57;43.85
74921;BME280;63483;47.384;8.860;2023-11-21T02:19:20;94121.31;;;6.57;43.77
74921;BME280;63483;47.384;8.860;2023-11-21T02:21:49;94123.28;;;6.55;43.68
74921;BME280;63483;47.384;8.860;2023-11-21T02:24:15;94116.28;;;6.56;43.93
74921;BME280;63483;47.384;8.860;2023-11-21T02:26:40;94110.09;;;6.57;43.46
74921;BME280;63483;47.384;8.860;2023-11-21T02:29:06;94109.13;;;6.58;43.81
74921;BME280;63483;47.384;8.860;2023-11-21T02:31:35;94110.38;;;6.62;43.59
74921;BME280;63483;47.384;8.860;2023-11-21T02:34:02;94107.97;;;6.60;43.88
74921;BME280;63483;47.384;8.860;2023-11-21T02:36:28;94103.75;;;6.59;43.74
74921;BME280;63483;47.384;8.860;2023-11-21T02:38:53;94105.19;;;6.62;43.49
74921;BME280;63483;47.384;8.860;2023-11-21T02:41:18;94109.41;;;6.63;43.83
74921;BME280;63483;47.384;8.860;2023-11-21T02:43:44;94106.66;;;6.64;43.87
74921;BME280;63483;47.384;8.860;2023-11-21T02:46:09;94114.97;;;6.60;43.35
74921;BME280;63483;47.384;8.860;2023-11-21T02:48:34;94103.41;;;6.62;43.39
74921;BME280;63483;47.384;8.860;2023-11-21T02:51:01;94104.22;;;6.63;43.95
74921;BME280;63483;47.384;8.860;2023-11-21T02:53:26;94103.59;;;6.61;44.00
74921;BME280;63483;47.384;8.860;2023-11-21T02:55:51;94105.19;;;6.62;44.22
74921;BME280;63483;47.384;8.860;2023-11-21T02:58:17;94109.41;;;6.63;44.69
74921;BME280;63483;47.384;8.860;2023-11-21T03:00:42;94102.59;;;6.62;44.93
74921;BME280;63483;47.384;8.860;2023-11-21T03:03:07;94106.34;;;6.59;45.57
74921;BME280;63483;47.384;8.860;2023-11-21T03:05:33;94105.53;;;6.59;45.53
74921;BME280;63483;47.384;8.860;2023-11-21T03:08:00;94104.72;;;6.58;45.76
74921;BME280;63483;47.384;8.860;2023-11-21T03:10:26;94108.97;;;6.59;46.01
74921;BME280;63483;47.384;8.860;2023-11-21T03:12:52;94114.50;;;6.56;46.87
74921;BME280;63483;47.384;8.860;2023-11-21T03:15:17;94120.84;;;6.53;46.87
74921;BME280;63483;47.384;8.860;2023-11-21T03:17:43;94124.41;;;6.52;46.92
74921;BME280;63483;47.384;8.860;2023-11-21T03:20:08;94136.63;;;6.52;46.95
74921;BME280;63483;47.384;8.860;2023-11-21T03:22:37;94142.00;;;6.50;46.68
74921;BME280;63483;47.384;8.860;2023-11-21T03:25:04;94134.84;;;6.44;46.79
74921;BME280;63483;47.384;8.860;2023-11-21T03:27:30;94145.75;;;6.40;47.56
74921;BME280;63483;47.384;8.860;2023-11-21T03:29:55;94146.56;;;6.24;47.30
74921;BME280;63483;47.384;8.860;2023-11-21T03:32:20;94141.84;;;6.27;47.54
74921;BME280;63483;47.384;8.860;2023-11-21T03:34:56;94137.50;;;5.78;47.64
74921;BME280;63483;47.384;8.860;2023-11-21T03:37:23;94134.97;;;4.68;45.55
74921;BME280;63483;47.384;8.860;2023-11-21T03:39:48;94135.13;;;4.06;46.46
74921;BME280;63483;47.384;8.860;2023-11-21T03:42:14;94131.34;;;3.38;46.26
74921;BME280;63483;47.384;8.860;2023-11-21T03:44:39;94128.00;;;2.82;46.96
74921;BME280;63483;47.384;8.860;2023-11-21T03:47:04;94132.28;;;2.63;48.19
74921;BME280;63483;47.384;8.860;2023-11-21T03:49:30;94127.94;;;2.26;49.09
74921;BME280;63483;47.384;8.860;2023-11-21T03:51:56;94129.53;;;2.00;48.70
74921;BME280;63483;47.384;8.860;2023-11-21T03:54:21;94132.53;;;1.85;49.66
74921;BME280;63483;47.384;8.860;2023-11-21T03:56:46;94135.56;;;1.71;49.24
74921;BME280;63483;47.384;8.860;2023-11-21T03:59:12;94144.78;;;1.73;51.50
74921;BME280;63483;47.384;8.860;2023-11-21T04:01:37;94129.56;;;1.80;49.05
74921;BME280;63483;47.384;8.860;2023-11-21T04:04:03;94134.88;;;1.88;47.93
74921;BME280;63483;47.384;8.860;2023-11-21T04:06:28;94136.91;;;1.85;46.94
74921;BME280;63483;47.384;8.860;2023-11-21T04:08:54;94143.66;;;1.95;48.15
74921;BME280;63483;47.384;8.860;2023-11-21T04:11:19;94140.94;;;2.07;46.67
74921;BME280;63483;47.384;8.860;2023-11-21T04:13:44;94137.13;;;2.11;45.87
74921;BME280;63483;47.384;8.860;2023-11-21T04:16:12;94129.94;;;2.42;46.63
74921;BME280;63483;47.384;8.860;2023-11-21T04:18:38;94129.81;;;2.72;48.84
74921;BME280;63483;47.384;8.860;2023-11-21T04:21:06;94128.81;;;3.00;50.38
74921;BME280;63483;47.384;8.860;2023-11-21T04:23:33;94131.06;;;3.31;51.67
74921;BME280;63483;47.384;8.860;2023-11-21T04:25:58;94132.69;;;3.60;52.41
74921;BME280;63483;47.384;8.860;2023-11-21T04:28:24;94132.84;;;3.85;52.52
74921;BME280;63483;47.384;8.860;2023-11-21T04:30:50;94137.56;;;4.07;52.32
74921;BME280;63483;47.384;8.860;2023-11-21T04:33:15;94145.28;;;4.25;53.03
74921;BME280;63483;47.384;8.860;2023-11-21T04:35:41;94128.34;;;4.39;52.35
74921;BME280;63483;47.384;8.860;2023-11-21T04:38:06;94131.31;;;4.53;52.97
74921;BME280;63483;47.384;8.860;2023-11-21T04:40:32;94134.44;;;4.65;52.71
74921;BME280;63483;47.384;8.860;2023-11-21T04:42:57;94141.31;;;4.74;53.23
74921;BME280;63483;47.384;8.860;2023-11-21T04:45:22;94137.78;;;4.83;52.68
74921;BME280;63483;47.384;8.860;2023-11-21T04:47:48;94136.34;;;4.89;52.80
74921;BME280;63483;47.384;8.860;2023-11-21T04:50:13;94142.53;;;4.96;53.14
74921;BME280;63483;47.384;8.860;2023-11-21T04:52:38;94147.72;;;4.96;52.82
74921;BME280;63483;47.384;8.860;2023-11-21T04:55:04;94138.66;;;5.00;52.64
74921;BME280;63483;47.384;8.860;2023-11-21T04:57:31;94136.59;;;5.04;52.24
74921;BME280;63483;47.384;8.860;2023-11-21T04:59:57;94140.47;;;5.08;51.99
74921;BME280;63483;47.384;8.860;2023-11-21T05:02:22;94145.50;;;5.01;51.59
74921;BME280;63483;47.384;8.860;2023-11-21T05:04:47;94146.44;;;5.00;51.86
74921;BME280;63483;47.384;8.860;2023-11-21T05:07:13;94144.84;;;4.99;51.62
74921;BME280;63483;47.384;8.860;2023-11-21T05:09:44;94150.03;;;5.07;51.21
74921;BME280;63483;47.384;8.860;2023-11-21T05:12:12;94153.28;;;5.09;51.54
74921;BME280;63483;47.384;8.860;2023-11-21T05:14:38;94155.88;;;5.09;51.51
74921;BME280;63483;47.384;8.860;2023-11-21T05:17:03;94147.50;;;5.16;51.10
74921;BME280;63483;47.384;8.860;2023-11-21T05:19:29;94154.28;;;5.17;51.49
74921;BME280;63483;47.384;8.860;2023-11-21T05:21:55;94140.34;;;5.18;51.20
74921;BME280;63483;47.384;8.860;2023-11-21T05:24:20;94141.66;;;5.22;51.60
74921;BME280;63483;47.384;8.860;2023-11-21T05:26:45;94147.66;;;5.22;51.27
74921;BME280;63483;47.384;8.860;2023-11-21T05:29:10;94145.53;;;5.18;51.11
74921;BME280;63483;47.384;8.860;2023-11-21T05:31:36;94141.97;;;5.19;51.25
74921;BME280;63483;47.384;8.860;2023-11-21T05:34:03;94143.59;;;5.20;51.30
74921;BME280;63483;47.384;8.860;2023-11-21T05:36:30;94144.91;;;5.24;51.04
74921;BME280;63483;47.384;8.860;2023-11-21T05:38:55;94148.16;;;5.26;51.54
74921;BME280;63483;47.384;8.860;2023-11-21T05:41:21;94151.72;;;5.25;50.96
74921;BME280;63483;47.384;8.860;2023-11-21T05:43:46;94167.63;;;5.30;51.48
74921;BME280;63483;47.384;8.860;2023-11-21T05:46:11;94168.94;;;5.26;51.14
74921;BME280;63483;47.384;8.860;2023-11-21T05:48:38;94175.25;;;5.23;51.17
74921;BME280;63483;47.384;8.860;2023-11-21T05:51:05;94166.97;;;5.28;51.19
74921;BME280;63483;47.384;8.860;2023-11-21T05:53:31;94171.53;;;5.26;51.19
74921;BME280;63483;47.384;8.860;2023-11-21T05:55:56;94166.31;;;5.18;51.41
74921;BME280;63483;47.384;8.860;2023-11-21T05:58:22;94166.31;;;5.18;51.41
74921;BME280;63483;47.384;8.860;2023-11-21T06:00:47;94167.78;;;5.20;51.76
74921;BME280;63483;47.384;8.860;2023-11-21T06:03:12;94168.25;;;5.16;51.56
74921;BME280;63483;47.384;8.860;2023-11-21T06:05:38;94166.78;;;5.13;51.88
74921;BME280;63483;47.384;8.860;2023-11-21T06:08:03;94173.09;;;5.02;51.97
74921;BME280;63483;47.384;8.860;2023-11-21T06:10:29;94178.97;;;5.12;51.57
74921;BME280;63483;47.384;8.860;2023-11-21T06:12:54;94185.75;;;5.13;51.67
74921;BME280;63483;47.384;8.860;2023-11-21T06:15:19;94183.84;;;5.16;51.66
74921;BME280;63483;47.384;8.860;2023-11-21T06:17:47;94191.00;;;5.22;51.81
74921;BME280;63483;47.384;8.860;2023-11-21T06:20:17;94187.72;;;5.11;51.94
74921;BME280;63483;47.384;8.860;2023-11-21T06:22:46;94188.19;;;5.15;51.91
74921;BME280;63483;47.384;8.860;2023-11-21T06:25:13;94186.13;;;5.19;51.31
74921;BME280;63483;47.384;8.860;2023-11-21T06:27:40;94198.25;;;5.18;51.48
74921;BME280;63483;47.384;8.860;2023-11-21T06:30:07;94188.06;;;5.25;51.20
74921;BME280;63483;47.384;8.860;2023-11-21T06:32:34;94190.50;;;5.26;50.86
74921;BME280;63483;47.384;8.860;2023-11-21T06:35:01;94194.88;;;5.18;51.41
74921;BME280;63483;47.384;8.860;2023-11-21T06:37:28;94196.81;;;5.24;51.32
74921;BME280;63483;47.384;8.860;2023-11-21T06:39:54;94203.66;;;5.25;51.37
74921;BME280;63483;47.384;8.860;2023-11-21T06:42:19;94194.06;;;5.25;50.74
74921;BME280;63483;47.384;8.860;2023-11-21T06:44:45;94193.59;;;5.22;50.92
74921;BME280;63483;47.384;8.860;2023-11-21T06:47:11;94194.69;;;5.19;51.42
74921;BME280;63483;47.384;8.860;2023-11-21T06:49:36;94192.59;;;5.15;51.09
74921;BME280;63483;47.384;8.860;2023-11-21T06:52:03;94195.97;;;5.15;51.14
74921;BME280;63483;47.384;8.860;2023-11-21T06:54:31;94194.69;;;5.19;51.44
74921;BME280;63483;47.384;8.860;2023-11-21T06:56:56;94200.06;;;4.57;50.93
74921;BME280;63483;47.384;8.860;2023-11-21T06:59:22;94199.16;;;4.14;48.96
74921;BME280;63483;47.384;8.860;2023-11-21T07:01:47;94203.50;;;3.69;50.05
74921;BME280;63483;47.384;8.860;2023-11-21T07:04:13;94202.28;;;3.17;49.80
74921;BME280;63483;47.384;8.860;2023-11-21T07:06:38;94208.47;;;2.79;50.36
74921;BME280;63483;47.384;8.860;2023-11-21T07:09:03;94210.66;;;2.74;50.82
74921;BME280;63483;47.384;8.860;2023-11-21T07:11:29;94213.94;;;2.76;51.51
74921;BME280;63483;47.384;8.860;2023-11-21T07:13:54;94219.72;;;2.50;51.19
74921;BME280;63483;47.384;8.860;2023-11-21T07:16:19;94227.44;;;2.60;53.21
74921;BME280;63483;47.384;8.860;2023-11-21T07:18:45;94222.06;;;2.81;53.58
74921;BME280;63483;47.384;8.860;2023-11-21T07:21:11;94223.69;;;2.82;50.50
74921;BME280;63483;47.384;8.860;2023-11-21T07:23:37;94222.31;;;2.88;50.67
74921;BME280;63483;47.384;8.860;2023-11-21T07:26:03;94222.25;;;2.97;50.82
74921;BME280;63483;47.384;8.860;2023-11-21T07:28:29;94212.75;;;2.98;49.56
74921;BME280;63483;47.384;8.860;2023-11-21T07:30:55;94205.63;;;3.00;49.44
74921;BME280;63483;47.384;8.860;2023-11-21T07:33:20;94214.03;;;3.12;48.73
74921;BME280;63483;47.384;8.860;2023-11-21T07:35:46;94218.91;;;3.15;49.38
74921;BME280;63483;47.384;8.860;2023-11-21T07:38:12;94213.16;;;3.21;48.77
74921;BME280;63483;47.384;8.860;2023-11-21T07:40:38;94224.84;;;3.35;52.85
74921;BME280;63483;47.384;8.860;2023-11-21T07:43:03;94226.56;;;3.62;52.98
74921;BME280;63483;47.384;8.860;2023-11-21T07:45:28;94218.94;;;3.79;52.64
74921;BME280;63483;47.384;8.860;2023-11-21T07:47:54;94222.50;;;3.96;53.12
74921;BME280;63483;47.384;8.860;2023-11-21T07:50:21;94218.25;;;4.13;53.22
74921;BME280;63483;47.384;8.860;2023-11-21T07:52:46;94225.81;;;3.24;54.09
74921;BME280;63483;47.384;8.860;2023-11-21T07:55:12;94225.38;;;2.63;53.01
74921;BME280;63483;47.384;8.860;2023-11-21T07:57:37;94224.97;;;2.11;52.65
74921;BME280;63483;47.384;8.860;2023-11-21T08:00:04;94227.41;;;1.73;52.35
74921;BME280;63483;47.384;8.860;2023-11-21T08:02:31;94217.09;;;1.64;54.60
74921;BME280;63483;47.384;8.860;2023-11-21T08:04:57;94222.94;;;1.56;55.28
74921;BME280;63483;47.384;8.860;2023-11-21T08:07:22;94217.06;;;1.54;53.48
74921;BME280;63483;47.384;8.860;2023-11-21T08:09:47;94219.78;;;1.52;54.06
74921;BME280;63483;47.384;8.860;2023-11-21T08:12:15;94213.56;;;1.74;55.52
74921;BME280;63483;47.384;8.860;2023-11-21T08:14:40;94214.66;;;1.91;54.11
74921;BME280;63483;47.384;8.860;2023-11-21T08:17:05;94223.59;;;1.77;52.54
74921;BME280;63483;47.384;8.860;2023-11-21T08:19:31;94221.16;;;1.76;52.64
74921;BME280;63483;47.384;8.860;2023-11-21T08:21:58;94220.63;;;1.72;52.11
74921;BME280;63483;47.384;8.860;2023-11-21T08:24:24;94217.50;;;1.78;51.26
74921;BME280;63483;47.384;8.860;2023-11-21T08:26:50;94221.72;;;1.99;49.45
74921;BME280;63483;47.384;8.860;2023-11-21T08:29:16;94226.06;;;1.99;48.57
74921;BME280;63483;47.384;8.860;2023-11-21T08:31:42;94228.22;;;2.23;52.27
74921;BME280;63483;47.384;8.860;2023-11-21T08:34:07;94234.69;;;2.37;49.41
74921;BME280;63483;47.384;8.860;2023-11-21T08:36:33;94233.03;;;2.55;50.98
74921;BME280;63483;47.384;8.860;2023-11-21T08:38:59;94240.31;;;2.79;51.86
74921;BME280;63483;47.384;8.860;2023-11-21T08:41:24;94250.00;;;3.05;52.72
74921;BME280;63483;47.384;8.860;2023-11-21T08:43:50;94245.25;;;3.28;54.26
74921;BME280;63483;47.384;8.860;2023-11-21T08:46:16;94243.56;;;3.47;54.85
74921;BME280;63483;47.384;8.860;2023-11-21T08:48:43;94246.63;;;3.60;54.71
74921;BME280;63483;47.384;8.860;2023-11-21T08:51:09;94251.13;;;3.30;60.42
74921;BME280;63483;47.384;8.860;2023-11-21T08:53:36;94243.25;;;2.47;54.34
74921;BME280;63483;47.384;8.860;2023-11-21T08:56:03;94255.00;;;2.02;53.31
74921;BME280;63483;47.384;8.860;2023-11-21T08:58:29;94240.44;;;1.72;53.92
74921;BME280;63483;47.384;8.860;2023-11-21T09:00:56;94250.63;;;1.44;54.57
74921;BME280;63483;47.384;8.860;2023-11-21T09:03:21;94249.88;;;1.22;55.68
74921;BME280;63483;47.384;8.860;2023-11-21T09:05:46;94249.59;;;1.16;54.67
74921;BME280;63483;47.384;8.860;2023-11-21T09:08:12;94260.06;;;1.24;56.20
74921;BME280;63483;47.384;8.860;2023-11-21T09:10:37;94259.94;;;1.35;55.12
74921;BME280;63483;47.384;8.860;2023-11-21T09:13:04;94258.94;;;1.57;54.34
74921;BME280;63483;47.384;8.860;2023-11-21T09:15:30;94266.56;;;1.59;56.79
74921;BME280;63483;47.384;8.860;2023-11-21T09:17:55;94261.78;;;1.54;52.36
74921;BME280;63483;47.384;8.860;2023-11-21T09:20:21;94260.22;;;1.42;51.36
74921;BME280;63483;47.384;8.860;2023-11-21T09:22:48;94259.69;;;1.38;52.37
74921;BME280;63483;47.384;8.860;2023-11-21T09:25:14;94272.84;;;1.35;51.15
74921;BME280;63483;47.384;8.860;2023-11-21T09:27:39;94274.59;;;1.35;51.19
74921;BME280;63483;47.384;8.860;2023-11-21T09:30:06;94274.84;;;1.82;53.69
74921;BME280;63483;47.384;8.860;2023-11-21T09:32:34;94276.75;;;2.39;57.00
74921;BME280;63483;47.384;8.860;2023-11-21T09:35:00;94272.97;;;2.80;56.11
74921;BME280;63483;47.384;8.860;2023-11-21T09:37:27;94284.28;;;3.17;55.93
74921;BME280;63483;47.384;8.860;2023-11-21T09:39:52;94275.59;;;3.46;56.26
74921;BME280;63483;47.384;8.860;2023-11-21T09:42:49;94282.16;;;3.68;56.63
74921;BME280;63483;47.384;8.860;2023-11-21T09:45:18;94277.38;;;3.91;55.67
74921;BME280;63483;47.384;8.860;2023-11-21T09:47:46;94279.88;;;4.01;55.96
74921;BME280;63483;47.384;8.860;2023-11-21T09:50:15;94278.25;;;4.18;55.78
74921;BME280;63483;47.384;8.860;2023-11-21T09:53:18;94272.50;;;4.32;55.30
74921;BME280;63483;47.384;8.860;2023-11-21T09:55:51;94271.81;;;4.48;55.06
74921;BME280;63483;47.384;8.860;2023-11-21T09:58:18;94275.13;;;4.58;55.43
74921;BME280;63483;47.384;8.860;2023-11-21T10:00:48;94272.78;;;4.65;55.40
74921;BME280;63483;47.384;8.860;2023-11-21T10:03:14;94274.44;;;4.74;55.32
74921;BME280;63483;47.384;8.860;2023-11-21T10:05:42;94272.72;;;4.83;54.86
74921;BME280;63483;47.384;8.860;2023-11-21T10:08:09;94276.97;;;4.92;55.04
74921;BME280;63483;47.384;8.860;2023-11-21T10:10:36;94267.94;;;4.97;54.77
74921;BME280;63483;47.384;8.860;2023-11-21T10:13:03;94263.06;;;4.93;54.69
74921;BME280;63483;47.384;8.860;2023-11-21T10:15:33;94261.03;;;5.05;54.12
74921;BME280;63483;47.384;8.860;2023-11-21T10:18:02;94263.63;;;5.13;54.59
74921;BME280;63483;47.384;8.860;2023-11-21T10:20:28;94264.97;;;5.18;53.90
74921;BME280;63483;47.384;8.860;2023-11-21T10:22:54;94262.56;;;5.24;54.48
74921;BME280;63483;47.384;8.860;2023-11-21T10:25:22;94259.97;;;5.24;54.45
74921;BME280;63483;47.384;8.860;2023-11-21T10:27:48;94264.53;;;5.30;54.12
74921;BME280;63483;47.384;8.860;2023-11-21T10:30:17;94261.16;;;5.38;54.01
74921;BME280;63483;47.384;8.860;2023-11-21T10:32:43;94260.53;;;5.44;54.00
74921;BME280;63483;47.384;8.860;2023-11-21T10:35:09;94254.84;;;5.49;53.55
74921;BME280;63483;47.384;8.860;2023-11-21T10:37:38;94252.28;;;5.57;53.80
74921;BME280;63483;47.384;8.860;2023-11-21T10:40:07;94255.69;;;5.58;54.26
74921;BME280;63483;47.384;8.860;2023-11-21T10:42:33;94247.56;;;5.61;53.51
74921;BME280;63483;47.384;8.860;2023-11-21T10:44:58;94259.28;;;5.65;53.69
74921;BME280;63483;47.384;8.860;2023-11-21T10:47:24;94253.59;;;5.70;54.34
74921;BME280;63483;47.384;8.860;2023-11-21T10:49:51;94251.19;;;5.76;54.18
74921;BME280;63483;47.384;8.860;2023-11-21T10:52:19;94258.19;;;5.84;54.09
74921;BME280;63483;47.384;8.860;2023-11-21T10:54:45;94259.00;;;5.85;54.09
74921;BME280;63483;47.384;8.860;2023-11-21T10:57:13;94256.06;;;5.88;53.83
74921;BME280;63483;47.384;8.860;2023-11-21T10:59:42;94259.03;;;5.93;53.19
74921;BME280;63483;47.384;8.860;2023-11-21T11:02:21;94258.19;;;5.92;53.68
74921;BME280;63483;47.384;8.860;2023-11-21T11:04:51;94257.38;;;5.92;53.80
74921;BME280;63483;47.384;8.860;2023-11-21T11:07:17;94254.63;;;5.93;53.51
74921;BME280;63483;47.384;8.860;2023-11-21T11:09:43;94250.75;;;5.97;53.32
74921;BME280;63483;47.384;8.860;2023-11-21T11:12:10;94257.25;;;6.02;53.04
74921;BME280;63483;47.384;8.860;2023-11-21T11:14:40;94254.13;;;5.98;53.20
74921;BME280;63483;47.384;8.860;2023-11-21T11:17:07;94262.78;;;5.98;52.56
74921;BME280;63483;47.384;8.860;2023-11-21T11:19:33;94258.69;;;5.96;52.51
74921;BME280;63483;47.384;8.860;2023-11-21T11:25:10;94262.94;;;5.03;47.91
74921;BME280;63483;47.384;8.860;2023-11-21T11:33:43;94250.53;;;3.09;50.92
74921;BME280;63483;47.384;8.860;2023-11-21T11:36:29;94251.66;;;2.69;51.26
74921;BME280;63483;47.384;8.860;2023-11-21T11:38:56;94247.09;;;2.33;50.43
74921;BME280;63483;47.384;8.860;2023-11-21T11:41:31;94257.13;;;2.93;54.12
74921;BME280;63483;47.384;8.860;2023-11-21T11:44:00;94241.50;;;2.38;55.85
74921;BME280;63483;47.384;8.860;2023-11-21T11:46:41;94248.50;;;2.08;55.00
74921;BME280;63483;47.384;8.860;2023-11-21T11:49:07;94241.56;;;1.89;52.60
74921;BME280;63483;47.384;8.860;2023-11-21T11:51:33;94249.97;;;1.71;53.89
74921;BME280;63483;47.384;8.860;2023-11-21T11:54:01;94242.09;;;1.63;53.15
74921;BME280;63483;47.384;8.860;2023-11-21T11:56:30;94246.97;;;1.56;52.39
74921;BME280;63483;47.384;8.860;2023-11-21T11:59:01;94245.28;;;1.36;53.31
74921;BME280;63483;47.384;8.860;2023-11-21T12:01:32;94244.44;;;1.25;52.46
74921;BME280;63483;47.384;8.860;2023-11-21T12:07:01;94245.06;;;1.58;53.90
74921;BME280;63483;47.384;8.860;2023-11-21T12:09:30;94240.97;;;1.46;51.48
74921;BME280;63483;47.384;8.860;2023-11-21T12:11:56;94246.00;;;1.48;51.24
74921;BME280;63483;47.384;8.860;2023-11-21T12:14:22;94246.94;;;1.47;52.00
74921;BME280;63483;47.384;8.860;2023-11-21T12:16:48;94243.59;;;1.75;51.15
74921;BME280;63483;47.384;8.860;2023-11-21T12:19:14;94247.53;;;1.89;50.81
74921;BME280;63483;47.384;8.860;2023-11-21T12:21:40;94245.78;;;1.80;49.79
74921;BME280;63483;47.384;8.860;2023-11-21T12:24:09;94250.25;;;2.17;50.23
74921;BME280;63483;47.384;8.860;2023-11-21T12:26:35;94251.03;;;2.37;50.76
74921;BME280;63483;47.384;8.860;2023-11-21T12:29:04;94256.41;;;2.63;47.43
74921;BME280;63483;47.384;8.860;2023-11-21T12:31:30;94253.25;;;2.79;49.33
74921;BME280;63483;47.384;8.860;2023-11-21T12:33:56;94250.00;;;3.05;49.17
74921;BME280;63483;47.384;8.860;2023-11-21T12:36:22;94247.56;;;3.31;51.02
74921;BME280;63483;47.384;8.860;2023-11-21T12:38:48;94253.81;;;3.66;53.01
74921;BME280;63483;47.384;8.860;2023-11-21T12:41:15;94258.19;;;4.02;53.49
74921;BME280;63483;47.384;8.860;2023-11-21T12:43:42;94260.53;;;4.31;53.85
74921;BME280;63483;47.384;8.860;2023-11-21T12:46:09;94253.91;;;4.55;53.90
74921;BME280;63483;47.384;8.860;2023-11-21T12:48:42;94252.88;;;4.74;53.64
74921;BME280;63483;47.384;8.860;2023-11-21T12:51:08;94258.81;;;4.92;53.92
74921;BME280;63483;47.384;8.860;2023-11-21T12:53:35;94254.19;;;5.04;53.38
74921;BME280;63483;47.384;8.860;2023-11-21T12:56:07;94255.22;;;5.20;53.20
74921;BME280;63483;47.384;8.860;2023-11-21T12:58:35;94260.16;;;5.31;52.30
74921;BME280;63483;47.384;8.860;2023-11-21T13:01:01;94251.56;;;5.39;52.19
74921;BME280;63483;47.384;8.860;2023-11-21T13:03:29;94255.00;;;5.47;52.38
74921;BME280;63483;47.384;8.860;2023-11-21T13:05:55;94266.25;;;5.56;52.22
74921;BME280;63483;47.384;8.860;2023-11-21T13:08:23;94264.63;;;5.63;52.74
74921;BME280;63483;47.384;8.860;2023-11-21T13:10:54;94264.84;;;5.70;51.85
74921;BME280;63483;47.384;8.860;2023-11-21T13:13:20;94267.75;;;5.75;52.04
74921;BME280;63483;47.384;8.860;2023-11-21T13:18:16;94273.63;;;5.86;52.37
74921;BME280;63483;47.384;8.860;2023-11-21T13:20:43;94268.09;;;5.89;52.14